Time;durP1;ratioP1;P1;durP2;ratioP2;P2;SDS_P1;SDS_P2;PMS_P1;PMS_P2;Temp;Humidity;BMP_temperature;BMP_pressure;BME280_temperature;BME280_humidity;BME280_pressure;Samples;Min_cycle;Max_cycle;Signal;HPM_P1;HPM_P2
2023/09/25 00:00:40;;;;;;;;;;;;;;;9.98;49.89;96248.06;5002185;28;19989;-79
2023/09/25 00:03:06;;;;;;;;;;;;;;;9.88;49.98;96245.53;4999980;28;20193;-78
2023/09/25 00:05:31;;;;;;;;;;;;;;;9.90;50.13;96246.22;4996553;28;20570;-79
2023/09/25 00:07:57;;;;;;;;;;;;;;;9.99;49.36;96249.72;5001596;28;19973;-79
2023/09/25 00:10:22;;;;;;;;;;;;;;;9.99;47.71;96249.72;4974269;28;19980;-79
2023/09/25 00:12:48;;;;;;;;;;;;;;;9.80;50.49;96246.31;5000660;28;20484;-80
2023/09/25 00:15:13;;;;;;;;;;;;;;;9.82;49.37;96241.69;4983277;28;19971;-79
2023/09/25 00:17:40;;;;;;;;;;;;;;;9.76;48.56;96242.28;5005906;28;19984;-80
2023/09/25 00:20:07;;;;;;;;;;;;;;;9.76;49.09;96242.28;4966816;28;19963;-76
2023/09/25 00:22:35;;;;;;;;;;;;;;;10.02;48.43;96240.59;4996010;28;19995;-77
2023/09/25 00:25:00;;;;;;;;;;;;;;;9.91;48.42;96237.25;4988497;28;19983;-77
2023/09/25 00:27:26;;;;;;;;;;;;;;;9.82;49.10;96236.34;4983012;28;20056;-78
2023/09/25 00:29:51;;;;;;;;;;;;;;;9.66;48.89;96246.91;4986144;28;19985;-78
2023/09/25 00:32:17;;;;;;;;;;;;;;;9.65;50.42;96240.75;4993659;28;19965;-77
2023/09/25 00:34:42;;;;;;;;;;;;;;;9.57;50.58;96238.88;4995267;28;20446;-77
2023/09/25 00:37:07;;;;;;;;;;;;;;;9.69;49.01;96241.28;4988440;28;19985;-77
2023/09/25 00:39:33;;;;;;;;;;;;;;;9.87;48.84;96227.91;4991189;28;19967;-77
2023/09/25 00:41:58;;;;;;;;;;;;;;;9.85;49.10;96232.53;4991718;28;19991;-78
2023/09/25 00:44:24;;;;;;;;;;;;;;;9.87;48.75;96235.06;4986205;28;20039;-76
2023/09/25 00:46:49;;;;;;;;;;;;;;;9.87;47.74;96233.22;4985781;28;19972;-77
2023/09/25 00:49:14;;;;;;;;;;;;;;;9.93;48.92;96239.75;4988343;28;20090;-78
2023/09/25 00:51:39;;;;;;;;;;;;;;;9.93;48.67;96234.44;4992597;28;19959;-78
2023/09/25 00:54:05;;;;;;;;;;;;;;;10.05;49.14;96234.97;4974480;28;20032;-76
2023/09/25 00:56:30;;;;;;;;;;;;;;;9.82;48.98;96235.50;4978515;28;20498;-77
2023/09/25 00:58:55;;;;;;;;;;;;;;;9.71;49.65;96239.28;4979937;28;20388;-78
2023/09/25 01:03:52;;;;;;;;;;;;;;;9.63;50.42;96226.78;4958959;28;20009;-73
2023/09/25 01:06:17;;;;;;;;;;;;;;;9.80;50.04;96233.00;4947816;28;20498;-73
2023/09/25 01:08:43;;;;;;;;;;;;;;;9.65;49.56;96239.94;4960742;28;20672;-73
2023/09/25 01:11:08;;;;;;;;;;;;;;;9.76;49.90;96236.97;4966984;28;19975;-73
2023/09/25 01:13:34;;;;;;;;;;;;;;;9.78;49.23;96228.84;4957633;28;20619;-74
2023/09/25 01:15:59;;;;;;;;;;;;;;;9.71;48.77;96233.97;4948598;28;20061;-74
2023/09/25 01:18:24;;;;;;;;;;;;;;;9.65;49.44;96231.97;4944627;28;19971;-73
2023/09/25 01:20:50;;;;;;;;;;;;;;;9.51;50.26;96233.34;4951465;28;20454;-73
2023/09/25 01:23:15;;;;;;;;;;;;;;;9.59;50.57;96228.91;4965445;28;20769;-73
2023/09/25 01:25:40;;;;;;;;;;;;;;;9.70;48.97;96230.47;4948163;28;20055;-73
2023/09/25 01:28:05;;;;;;;;;;;;;;;9.65;50.11;96224.78;4937163;28;19977;-74
2023/09/25 01:30:31;;;;;;;;;;;;;;;9.45;50.77;96225.00;4947065;28;19962;-74
2023/09/25 01:32:57;;;;;;;;;;;;;;;9.92;49.48;96214.97;4949375;28;19985;-74
2023/09/25 01:35:26;;;;;;;;;;;;;;;9.48;49.69;96212.41;4971492;28;20037;-74
2023/09/25 01:37:55;;;;;;;;;;;;;;;9.59;49.94;96204.19;4943827;28;19983;-73
2023/09/25 01:40:20;;;;;;;;;;;;;;;9.36;51.15;96204.69;4940512;28;19992;-74
2023/09/25 01:42:46;;;;;;;;;;;;;;;9.70;50.08;96213.69;4911535;29;20062;-74
2023/09/25 01:45:12;;;;;;;;;;;;;;;9.53;49.70;96210.94;4945834;28;19992;-74
2023/09/25 01:47:37;;;;;;;;;;;;;;;9.28;50.53;96208.09;4964270;28;20052;-73
2023/09/25 01:50:03;;;;;;;;;;;;;;;9.68;50.00;96203.22;4946731;28;20093;-73
2023/09/25 01:52:29;;;;;;;;;;;;;;;9.59;50.23;96204.19;4938496;28;19990;-73
2023/09/25 01:54:54;;;;;;;;;;;;;;;9.67;49.84;96201.56;4940129;28;19959;-73
2023/09/25 01:57:19;;;;;;;;;;;;;;;9.46;50.04;96200.09;4924531;29;19993;-73
2023/09/25 01:59:44;;;;;;;;;;;;;;;9.68;50.08;96191.75;4939921;28;19970;-73
2023/09/25 02:02:10;;;;;;;;;;;;;;;9.59;50.27;96196.19;4961252;28;20086;-73
2023/09/25 02:04:35;;;;;;;;;;;;;;;9.56;50.27;96191.19;4963626;28;20470;-73
2023/09/25 02:07:01;;;;;;;;;;;;;;;9.68;49.69;96197.91;4941897;28;20058;-73
2023/09/25 02:09:27;;;;;;;;;;;;;;;9.76;49.98;96199.75;4937451;28;19993;-73
2023/09/25 02:11:52;;;;;;;;;;;;;;;9.67;49.98;96196.25;4935832;29;19986;-74
2023/09/25 02:14:17;;;;;;;;;;;;;;;9.84;49.34;96194.50;4964595;28;20019;-73
2023/09/25 02:16:42;;;;;;;;;;;;;;;9.85;49.03;96198.81;4950056;28;19995;-73
2023/09/25 02:19:07;;;;;;;;;;;;;;;9.90;49.76;96185.06;4964933;28;19968;-73
2023/09/25 02:21:33;;;;;;;;;;;;;;;9.49;51.06;96183.03;4963234;28;19991;-73
2023/09/25 02:23:58;;;;;;;;;;;;;;;9.35;51.03;96186.25;4945942;28;19975;-73
2023/09/25 02:26:23;;;;;;;;;;;;;;;9.51;50.67;96186.34;4954636;28;19972;-71
2023/09/25 02:28:48;;;;;;;;;;;;;;;9.68;49.97;96186.41;4955612;28;20023;-74
2023/09/25 02:31:14;;;;;;;;;;;;;;;9.88;49.42;96184.38;4954970;28;20061;-74
2023/09/25 02:33:39;;;;;;;;;;;;;;;9.86;49.53;96183.66;4933897;28;20115;-73
2023/09/25 02:36:09;;;;;;;;;;;;;;;9.55;50.28;96181.53;4928793;28;20393;-73
2023/09/25 02:38:34;;;;;;;;;;;;;;;9.55;50.78;96181.53;4959731;28;19977;-74
2023/09/25 02:40:59;;;;;;;;;;;;;;;9.75;49.14;96181.31;4958712;28;20719;-73
2023/09/25 02:43:25;;;;;;;;;;;;;;;9.67;49.61;96176.78;4953975;28;20012;-72
2023/09/25 02:45:50;;;;;;;;;;;;;;;9.82;49.49;96182.31;4933621;28;20033;-72
2023/09/25 02:48:16;;;;;;;;;;;;;;;9.44;49.91;96179.97;4932427;28;20020;-73
2023/09/25 02:50:41;;;;;;;;;;;;;;;9.96;48.07;96178.22;4961085;28;19971;-72
2023/09/25 02:53:06;;;;;;;;;;;;;;;9.72;49.87;96177.13;4956758;28;20659;-72
2023/09/25 02:55:32;;;;;;;;;;;;;;;9.70;48.99;96174.63;4938422;28;19963;-73
2023/09/25 02:57:57;;;;;;;;;;;;;;;9.59;49.21;96193.53;4947498;28;19991;-72
2023/09/25 03:00:22;;;;;;;;;;;;;;;9.72;49.41;96187.75;4943027;28;19986;-73
2023/09/25 03:02:47;;;;;;;;;;;;;;;9.54;49.69;96191.34;4938078;28;20612;-73
2023/09/25 03:05:14;;;;;;;;;;;;;;;9.67;48.74;96190.06;4946759;28;20021;-73
2023/09/25 03:07:40;;;;;;;;;;;;;;;9.57;49.96;96191.03;4926278;28;19972;-71
2023/09/25 03:10:05;;;;;;;;;;;;;;;9.78;47.45;96187.16;4935199;28;20011;-71
2023/09/25 03:12:30;;;;;;;;;;;;;;;9.60;49.15;96192.53;4926910;28;20017;-73
2023/09/25 03:14:56;;;;;;;;;;;;;;;9.59;48.87;96193.53;4972084;28;20509;-72
2023/09/25 03:17:21;;;;;;;;;;;;;;;9.69;49.26;96188.91;4963164;28;20460;-72
2023/09/25 03:19:49;;;;;;;;;;;;;;;9.34;49.78;96185.41;4941222;28;19970;-72
2023/09/25 03:22:14;;;;;;;;;;;;;;;9.68;48.55;96197.06;4942937;28;20103;-73
2023/09/25 03:24:40;;;;;;;;;;;;;;;9.32;49.75;96190.06;4950702;28;20065;-72
2023/09/25 03:27:05;;;;;;;;;;;;;;;9.19;49.13;96191.28;4944614;28;20481;-73
2023/09/25 03:29:30;;;;;;;;;;;;;;;9.35;49.94;96191.56;4925981;29;20697;-73
2023/09/25 03:31:56;;;;;;;;;;;;;;;9.24;50.02;96200.63;4946355;28;19967;-73
2023/09/25 03:34:21;;;;;;;;;;;;;;;9.29;48.63;96196.47;4941306;28;20068;-74
2023/09/25 03:36:47;;;;;;;;;;;;;;;9.57;48.99;96195.50;4950250;28;20043;-74
2023/09/25 03:39:12;;;;;;;;;;;;;;;9.41;49.22;96191.75;4939568;28;19973;-73
2023/09/25 03:41:37;;;;;;;;;;;;;;;9.26;49.21;96193.31;4946115;28;20038;-72
2023/09/25 03:44:02;;;;;;;;;;;;;;;9.53;49.15;96189.69;4938792;28;19968;-72
2023/09/25 03:46:28;;;;;;;;;;;;;;;9.44;48.78;96182.63;4947983;28;19964;-72
2023/09/25 03:48:53;;;;;;;;;;;;;;;9.45;48.54;96181.63;4937280;28;19978;-72
2023/09/25 03:51:18;;;;;;;;;;;;;;;9.59;46.91;96180.25;4946104;28;20012;-73
2023/09/25 03:53:44;;;;;;;;;;;;;;;9.33;48.76;96181.94;4944566;28;20125;-72
2023/09/25 03:56:09;;;;;;;;;;;;;;;9.27;48.41;96182.53;4949650;28;20011;-74
2023/09/25 03:58:34;;;;;;;;;;;;;;;9.27;48.30;96184.34;4938730;28;20010;-73
2023/09/25 04:00:59;;;;;;;;;;;;;;;9.30;48.63;96179.56;4944291;28;20750;-74
2023/09/25 04:03:25;;;;;;;;;;;;;;;9.55;48.13;96187.69;4949159;28;20002;-74
2023/09/25 04:05:50;;;;;;;;;;;;;;;9.16;48.32;96183.63;4943714;28;19989;-71
2023/09/25 04:08:15;;;;;;;;;;;;;;;9.14;49.13;96184.75;4941995;28;20488;-72
2023/09/25 04:10:40;;;;;;;;;;;;;;;9.07;49.20;96182.72;4943239;28;20337;-73
2023/09/25 04:13:08;;;;;;;;;;;;;;;9.26;49.20;96188.00;4939386;28;20017;-74
2023/09/25 04:15:33;;;;;;;;;;;;;;;9.23;47.80;96189.16;4944598;28;20048;-72
2023/09/25 04:17:58;;;;;;;;;;;;;;;9.42;47.62;96193.41;4959611;28;19984;-71
2023/09/25 04:20:26;;;;;;;;;;;;;;;9.39;47.52;96192.91;4958118;28;19969;-74
2023/09/25 04:22:52;;;;;;;;;;;;;;;9.40;47.95;96195.41;4940493;28;19994;-73
2023/09/25 04:25:20;;;;;;;;;;;;;;;9.49;47.90;96192.81;4938567;28;19987;-72
2023/09/25 04:27:46;;;;;;;;;;;;;;;9.02;49.72;96194.81;4946361;28;19969;-73
2023/09/25 04:30:14;;;;;;;;;;;;;;;9.20;49.21;96194.78;4936764;28;19995;-73
2023/09/25 04:32:40;;;;;;;;;;;;;;;9.31;47.83;96196.34;4946063;28;19990;-71
2023/09/25 04:35:07;;;;;;;;;;;;;;;9.00;50.06;96192.31;4957195;28;19967;-72
2023/09/25 04:37:32;;;;;;;;;;;;;;;8.90;50.13;96192.34;4951242;28;20061;-73
2023/09/25 04:39:58;;;;;;;;;;;;;;;9.10;48.26;96192.22;4945564;28;20467;-73
2023/09/25 04:42:23;;;;;;;;;;;;;;;9.18;47.84;96196.75;4951917;28;20002;-73
2023/09/25 04:44:48;;;;;;;;;;;;;;;9.14;49.12;96198.03;4926650;28;20108;-73
2023/09/25 04:47:13;;;;;;;;;;;;;;;9.24;48.36;96209.41;4945203;28;20000;-73
2023/09/25 04:49:39;;;;;;;;;;;;;;;9.18;47.48;96208.22;4945802;28;20104;-73
2023/09/25 04:52:05;;;;;;;;;;;;;;;9.07;48.47;96205.78;4937357;28;20073;-74
2023/09/25 04:54:31;;;;;;;;;;;;;;;9.20;47.92;96210.72;4938937;28;19963;-74
2023/09/25 04:56:56;;;;;;;;;;;;;;;9.35;47.24;96210.16;4942693;28;19994;-73
2023/09/25 04:59:21;;;;;;;;;;;;;;;9.05;48.30;96211.25;4957291;28;20014;-73
2023/09/25 05:01:47;;;;;;;;;;;;;;;8.83;47.90;96220.50;4963806;28;20572;-73
2023/09/25 05:04:12;;;;;;;;;;;;;;;8.39;49.34;96216.75;4962734;28;19974;-73
2023/09/25 05:06:38;;;;;;;;;;;;;;;8.78;47.98;96217.47;4932981;28;19979;-73
2023/09/25 05:09:03;;;;;;;;;;;;;;;9.09;47.68;96217.13;4961093;28;20069;-73
2023/09/25 05:11:29;;;;;;;;;;;;;;;9.10;48.11;96220.59;4958062;28;19975;-73
2023/09/25 05:13:54;;;;;;;;;;;;;;;9.21;48.13;96223.00;4959968;28;20006;-74
2023/09/25 05:16:19;;;;;;;;;;;;;;;9.30;47.82;96222.09;4961110;28;20036;-73
2023/09/25 05:18:44;;;;;;;;;;;;;;;9.27;48.23;96222.41;4941366;28;19970;-74
2023/09/25 05:21:10;;;;;;;;;;;;;;;9.13;48.61;96225.59;4958612;28;20036;-74
2023/09/25 05:23:35;;;;;;;;;;;;;;;9.20;48.09;96222.19;4975865;28;20071;-74
2023/09/25 05:26:00;;;;;;;;;;;;;;;9.13;48.58;96214.97;4941803;28;20023;-70
2023/09/25 05:28:25;;;;;;;;;;;;;;;9.19;48.63;96222.34;4948533;28;20614;-70
2023/09/25 05:30:54;;;;;;;;;;;;;;;9.21;48.74;96223.00;4948286;28;19974;-70
2023/09/25 05:33:19;;;;;;;;;;;;;;;9.23;48.42;96222.84;4945609;28;19987;-70
2023/09/25 05:35:44;;;;;;;;;;;;;;;9.22;48.39;96229.16;4952578;28;20011;-70
2023/09/25 05:38:10;;;;;;;;;;;;;;;9.17;49.63;96225.16;4948610;28;19982;-71
2023/09/25 05:40:35;;;;;;;;;;;;;;;9.32;48.62;96225.41;4950079;28;20491;-71
2023/09/25 05:43:00;;;;;;;;;;;;;;;9.34;47.74;96227.91;4948491;28;20954;-71
2023/09/25 05:45:26;;;;;;;;;;;;;;;9.18;50.37;96224.16;4949446;28;19989;-72
2023/09/25 05:47:51;;;;;;;;;;;;;;;9.24;50.52;96229.84;4948915;28;19964;-71
2023/09/25 05:50:16;;;;;;;;;;;;;;;9.14;51.01;96228.09;4947969;28;20036;-72
2023/09/25 05:52:42;;;;;;;;;;;;;;;9.31;50.38;96228.22;4946752;28;20410;-72
2023/09/25 05:55:07;;;;;;;;;;;;;;;9.30;50.71;96227.41;4948829;28;19969;-71
2023/09/25 05:57:32;;;;;;;;;;;;;;;9.43;50.30;96234.13;4946727;28;20080;-72
2023/09/25 05:59:59;;;;;;;;;;;;;;;9.60;49.68;96237.72;4948376;28;20043;-71
2023/09/25 06:02:25;;;;;;;;;;;;;;;9.68;49.48;96239.59;4947300;28;19994;-72
2023/09/25 06:04:50;;;;;;;;;;;;;;;9.70;49.44;96225.16;4934288;28;19985;-72
2023/09/25 06:07:16;;;;;;;;;;;;;;;9.78;49.13;96237.66;4947056;28;20063;-72
2023/09/25 06:09:41;;;;;;;;;;;;;;;9.95;48.38;96240.41;4947913;28;20020;-72
2023/09/25 06:12:08;;;;;;;;;;;;;;;10.08;48.34;96232.88;4947964;28;20405;-72
2023/09/25 06:14:35;;;;;;;;;;;;;;;10.06;48.24;96237.50;4949590;28;19963;-72
2023/09/25 06:17:00;;;;;;;;;;;;;;;10.13;47.16;96231.56;4951342;28;19985;-71
2023/09/25 06:19:26;;;;;;;;;;;;;;;10.22;47.48;96239.41;4952166;28;19962;-72
2023/09/25 06:21:51;;;;;;;;;;;;;;;10.37;46.87;96236.09;4933776;28;20715;-72
2023/09/25 06:24:17;;;;;;;;;;;;;;;10.36;47.10;96240.63;4950247;28;20206;-72
2023/09/25 06:26:46;;;;;;;;;;;;;;;10.53;46.20;96242.47;4932744;28;19957;-72
2023/09/25 06:29:11;;;;;;;;;;;;;;;10.74;45.39;96240.22;4947414;28;20546;-72
2023/09/25 06:31:37;;;;;;;;;;;;;;;10.97;44.24;96238.72;4951884;28;20019;-72
2023/09/25 06:34:03;;;;;;;;;;;;;;;11.13;43.36;96244.09;4949567;28;20033;-72
2023/09/25 06:36:28;;;;;;;;;;;;;;;11.01;44.75;96240.06;4950135;28;20021;-72
2023/09/25 06:38:53;;;;;;;;;;;;;;;10.89;45.35;96242.25;4950301;28;20370;-71
2023/09/25 06:41:18;;;;;;;;;;;;;;;10.90;44.51;96248.38;4932513;28;21238;-72
2023/09/25 06:43:44;;;;;;;;;;;;;;;10.99;45.06;96242.06;4952727;28;19981;-72
2023/09/25 06:46:09;;;;;;;;;;;;;;;11.08;45.00;96242.91;4951047;28;20631;-72
2023/09/25 06:48:34;;;;;;;;;;;;;;;11.19;44.02;96239.94;4934925;28;20351;-72
2023/09/25 06:50:59;;;;;;;;;;;;;;;11.30;44.00;96236.13;4949855;28;19959;-74
2023/09/25 06:53:25;;;;;;;;;;;;;;;11.16;44.71;96240.28;4953604;28;19979;-74
2023/09/25 06:55:50;;;;;;;;;;;;;;;11.43;43.24;96240.09;4949952;28;19957;-73
2023/09/25 06:58:15;;;;;;;;;;;;;;;11.32;44.04;96251.94;4963118;28;20408;-75
2023/09/25 07:00:43;;;;;;;;;;;;;;;11.33;44.08;96240.28;4949922;28;20281;-74
2023/09/25 07:03:09;;;;;;;;;;;;;;;11.46;43.84;96242.44;4948679;28;20069;-72
2023/09/25 07:05:34;;;;;;;;;;;;;;;11.59;43.56;96242.75;4951554;28;19976;-73
2023/09/25 07:07:59;;;;;;;;;;;;;;;11.72;42.79;96247.56;4949936;28;20059;-74
2023/09/25 07:10:25;;;;;;;;;;;;;;;11.71;42.66;96247.72;4935352;28;20019;-72
2023/09/25 07:12:50;;;;;;;;;;;;;;;11.61;42.01;96255.91;4950157;28;20013;-74
2023/09/25 07:15:15;;;;;;;;;;;;;;;11.91;41.56;96248.19;4949747;28;19994;-74
2023/09/25 07:17:41;;;;;;;;;;;;;;;12.08;41.07;96254.34;4950809;28;20557;-75
2023/09/25 07:20:06;;;;;;;;;;;;;;;12.15;41.29;96257.16;4947587;28;19954;-72
2023/09/25 07:22:32;;;;;;;;;;;;;;;12.11;40.61;96258.50;4949402;28;19971;-74
2023/09/25 07:24:57;;;;;;;;;;;;;;;12.36;40.87;96264.56;4950080;28;19967;-74
2023/09/25 07:27:22;;;;;;;;;;;;;;;12.58;40.57;96270.13;4932691;28;20041;-74
2023/09/25 07:29:48;;;;;;;;;;;;;;;12.67;40.02;96263.75;4950816;28;19971;-74
2023/09/25 07:32:13;;;;;;;;;;;;;;;12.75;40.14;96267.41;4949236;28;19949;-75
2023/09/25 07:34:38;;;;;;;;;;;;;;;12.66;40.24;96263.94;4950372;28;20095;-74
2023/09/25 07:37:04;;;;;;;;;;;;;;;12.98;39.21;96259.38;4930346;28;19964;-75
2023/09/25 07:39:30;;;;;;;;;;;;;;;12.86;38.61;96264.31;4948200;28;19999;-75
2023/09/25 07:41:55;;;;;;;;;;;;;;;13.23;38.92;96255.75;4950261;28;20898;-73
2023/09/25 07:44:25;;;;;;;;;;;;;;;13.32;38.89;96260.00;4929673;28;20563;-74
2023/09/25 07:46:51;;;;;;;;;;;;;;;13.43;38.38;96261.44;4934482;28;19959;-74
2023/09/25 07:49:18;;;;;;;;;;;;;;;13.57;37.94;96267.81;4950014;28;19967;-75
2023/09/25 07:51:43;;;;;;;;;;;;;;;13.97;36.52;96269.47;4948356;28;19959;-75
2023/09/25 07:54:08;;;;;;;;;;;;;;;14.29;36.07;96278.16;4950080;28;20059;-74
2023/09/25 07:56:34;;;;;;;;;;;;;;;14.37;36.48;96275.38;4948751;28;19973;-73
2023/09/25 07:59:00;;;;;;;;;;;;;;;14.16;36.60;96285.00;4949060;28;19993;-69
2023/09/25 08:01:35;;;;;;;;;;;;;;;14.26;36.35;96282.03;4950819;28;20836;-68
2023/09/25 08:04:00;;;;;;;;;;;;;;;14.33;36.12;96279.44;4949584;28;19956;-67
2023/09/25 08:06:27;;;;;;;;;;;;;;;14.25;35.09;96283.06;4947715;28;19967;-68
2023/09/25 08:08:53;;;;;;;;;;;;;;;14.42;35.22;96278.31;4961398;28;19961;-68
2023/09/25 08:11:18;;;;;;;;;;;;;;;14.28;34.83;96274.63;4950157;28;19950;-68
2023/09/25 08:13:44;;;;;;;;;;;;;;;14.71;35.09;96275.78;4948218;28;19957;-67
2023/09/25 08:16:09;;;;;;;;;;;;;;;14.92;35.18;96268.84;4948488;28;19975;-68
2023/09/25 08:18:35;;;;;;;;;;;;;;;15.00;35.11;96279.44;4949923;28;20031;-68
2023/09/25 08:21:00;;;;;;;;;;;;;;;14.26;35.85;96278.50;4949688;28;20222;-68
2023/09/25 08:23:26;;;;;;;;;;;;;;;14.17;34.42;96285.81;4958219;28;19962;-68
2023/09/25 08:25:51;;;;;;;;;;;;;;;13.99;35.08;96284.34;4966345;28;20072;-68
2023/09/25 08:28:16;;;;;;;;;;;;;;;14.49;34.99;96277.56;4968055;28;19942;-68
2023/09/25 08:30:41;;;;;;;;;;;;;;;14.38;35.00;96274.34;4974502;28;19950;-68
2023/09/25 08:33:07;;;;;;;;;;;;;;;14.88;34.59;96281.78;4970983;28;19964;-68
2023/09/25 08:35:32;;;;;;;;;;;;;;;15.05;34.14;96286.88;4961740;28;20816;-68
2023/09/25 08:37:57;;;;;;;;;;;;;;;14.55;33.95;96285.69;4957543;28;19967;-68
2023/09/25 08:40:22;;;;;;;;;;;;;;;15.01;35.04;96282.94;4953275;28;20324;-68
2023/09/25 08:42:48;;;;;;;;;;;;;;;15.11;34.70;96272.72;4952699;28;20565;-68
2023/09/25 08:45:14;;;;;;;;;;;;;;;15.18;34.24;96275.47;4953712;28;19988;-68
2023/09/25 08:47:39;;;;;;;;;;;;;;;14.76;34.38;96277.94;4961582;28;19934;-68
2023/09/25 08:50:05;;;;;;;;;;;;;;;14.96;34.53;96273.59;4968739;28;19985;-68
2023/09/25 08:52:31;;;;;;;;;;;;;;;15.54;34.28;96271.88;4956799;28;19967;-68
2023/09/25 08:54:56;;;;;;;;;;;;;;;15.70;33.74;96273.47;4949166;28;19936;-68
2023/09/25 08:57:24;;;;;;;;;;;;;;;15.59;33.79;96277.53;4950558;28;19957;-68
2023/09/25 08:59:50;;;;;;;;;;;;;;;15.85;32.86;96277.94;4962105;28;19934;-68
2023/09/25 09:02:16;;;;;;;;;;;;;;;15.93;33.94;96279.63;4953789;28;19974;-68
2023/09/25 09:04:41;;;;;;;;;;;;;;;15.89;32.92;96271.13;4950470;28;19965;-68
2023/09/25 09:07:09;;;;;;;;;;;;;;;15.69;33.86;96274.50;4958327;28;20465;-68
2023/09/25 09:09:35;;;;;;;;;;;;;;;15.63;34.01;96271.78;4953678;28;20435;-68
2023/09/25 09:12:00;;;;;;;;;;;;;;;15.73;32.54;96261.50;4954228;28;19940;-68
2023/09/25 09:14:32;;;;;;;;;;;;;;;15.10;33.63;96284.50;4953091;28;19926;-68
2023/09/25 09:16:57;;;;;;;;;;;;;;;16.25;32.97;96278.16;4957244;28;19956;-68
2023/09/25 09:19:23;;;;;;;;;;;;;;;15.51;33.67;96279.50;4947346;28;19934;-68
2023/09/25 09:21:48;;;;;;;;;;;;;;;16.18;33.50;96274.63;4950925;28;19953;-69
2023/09/25 09:24:20;;;;;;;;;;;;;;;16.54;33.15;96274.59;4950398;28;19932;-68
2023/09/25 09:26:45;;;;;;;;;;;;;;;16.31;33.59;96279.22;4951382;28;20052;-68
2023/09/25 09:29:13;;;;;;;;;;;;;;;16.30;32.51;96272.22;4954593;28;19955;-69
2023/09/25 09:31:40;;;;;;;;;;;;;;;16.46;33.40;96260.31;4947159;28;19942;-68
2023/09/25 09:34:06;;;;;;;;;;;;;;;16.56;32.59;96261.81;4949022;28;20136;-68
2023/09/25 09:36:32;;;;;;;;;;;;;;;16.70;32.24;96266.22;4955450;28;20463;-68
2023/09/25 09:38:57;;;;;;;;;;;;;;;17.15;31.88;96265.75;4950153;28;19963;-68
2023/09/25 09:41:22;;;;;;;;;;;;;;;17.36;31.88;96266.59;4954445;28;19926;-68
2023/09/25 09:43:47;;;;;;;;;;;;;;;17.53;32.12;96263.47;4948279;28;20051;-68
2023/09/25 09:46:13;;;;;;;;;;;;;;;17.33;32.54;96266.19;4946351;28;20058;-68
2023/09/25 09:48:38;;;;;;;;;;;;;;;17.83;31.29;96263.06;4948115;28;19958;-68
2023/09/25 09:51:03;;;;;;;;;;;;;;;17.89;30.42;96269.50;4950104;28;20288;-68
2023/09/25 09:53:28;;;;;;;;;;;;;;;17.67;31.30;96267.00;4951295;28;19937;-68
2023/09/25 09:55:55;;;;;;;;;;;;;;;17.70;31.37;96266.59;4952408;28;19933;-68
2023/09/25 09:58:20;;;;;;;;;;;;;;;17.84;30.74;96255.81;4945723;28;19996;-68
2023/09/25 10:00:45;;;;;;;;;;;;;;;17.84;29.66;96250.44;4947765;28;20029;-68
2023/09/25 10:03:10;;;;;;;;;;;;;;;18.26;30.53;96258.25;4949704;28;20025;-68
2023/09/25 10:05:45;;;;;;;;;;;;;;;18.39;30.55;96254.69;4950448;28;20434;-68
2023/09/25 10:08:10;;;;;;;;;;;;;;;18.02;29.96;96250.63;4954326;28;19922;-69
2023/09/25 10:10:36;;;;;;;;;;;;;;;18.60;29.77;96250.06;4958372;28;19922;-68
2023/09/25 10:13:01;;;;;;;;;;;;;;;18.33;30.06;96242.03;4950988;28;20006;-69
2023/09/25 10:15:26;;;;;;;;;;;;;;;18.45;28.47;96245.72;4958254;28;20630;-68
2023/09/25 10:17:52;;;;;;;;;;;;;;;18.04;31.24;96247.72;4954899;28;20019;-68
2023/09/25 10:20:37;;;;;;;;;;;;;;;18.12;30.34;96254.75;4959475;28;19929;-68
2023/09/25 10:23:05;;;;;;;;;;;;;;;18.88;28.63;96251.56;4962970;28;19926;-68
2023/09/25 10:26:02;;;;;;;;;;;;;;;17.92;29.03;96255.63;4948548;28;20714;-68
2023/09/25 10:28:37;;;;;;;;;;;;;;;18.24;30.61;96252.22;4944497;28;20863;-68
2023/09/25 10:31:03;;;;;;;;;;;;;;;18.84;29.60;96255.75;4945089;28;19926;-69
2023/09/25 10:33:29;;;;;;;;;;;;;;;19.02;29.41;96246.94;4947394;28;19960;-68
2023/09/25 10:36:04;;;;;;;;;;;;;;;19.52;28.69;96243.50;4956241;28;19921;-68
2023/09/25 10:38:31;;;;;;;;;;;;;;;19.72;28.66;96245.19;4947584;28;19934;-68
2023/09/25 10:40:59;;;;;;;;;;;;;;;19.76;27.32;96240.16;4950057;28;20761;-69
2023/09/25 10:43:24;;;;;;;;;;;;;;;19.46;28.40;96241.66;4945326;28;19965;-68
2023/09/25 10:45:49;;;;;;;;;;;;;;;19.66;28.84;96241.50;4951577;28;20028;-68
2023/09/25 10:48:15;;;;;;;;;;;;;;;19.51;29.19;96236.44;4948713;28;20074;-68
2023/09/25 10:50:40;;;;;;;;;;;;;;;19.59;28.76;96241.53;4948758;28;19964;-68
2023/09/25 10:53:09;;;;;;;;;;;;;;;19.56;27.77;96243.88;4947551;28;19948;-68
2023/09/25 10:55:34;;;;;;;;;;;;;;;19.92;28.54;96238.78;4948139;28;19926;-68
2023/09/25 10:58:00;;;;;;;;;;;;;;;20.02;28.74;96239.09;4947255;28;19941;-68
2023/09/25 11:00:26;;;;;;;;;;;;;;;20.35;27.60;96245.19;4951140;28;19989;-68
2023/09/25 11:02:51;;;;;;;;;;;;;;;20.26;28.00;96235.75;4943845;28;20000;-68
2023/09/25 11:05:16;;;;;;;;;;;;;;;20.50;27.33;96239.41;4944951;28;20588;-68
2023/09/25 11:07:42;;;;;;;;;;;;;;;20.37;28.24;96229.59;4943980;28;19988;-69
2023/09/25 11:10:13;;;;;;;;;;;;;;;18.09;30.44;96239.00;4948861;28;20130;-68
2023/09/25 11:12:39;;;;;;;;;;;;;;;19.18;29.91;96230.19;4954663;28;19933;-68
2023/09/25 11:15:11;;;;;;;;;;;;;;;19.64;29.00;96226.59;4945133;28;19921;-68
2023/09/25 11:17:37;;;;;;;;;;;;;;;19.79;28.78;96235.13;4946446;28;19926;-68
2023/09/25 11:20:16;;;;;;;;;;;;;;;19.99;28.45;96236.88;4944963;28;19944;-68
2023/09/25 11:22:42;;;;;;;;;;;;;;;20.14;28.49;96241.91;4947361;28;20060;-69
2023/09/25 11:25:08;;;;;;;;;;;;;;;20.34;27.51;96236.28;4942249;28;20609;-68
2023/09/25 11:27:35;;;;;;;;;;;;;;;19.84;27.62;96237.19;4945123;28;19926;-68
2023/09/25 11:30:11;;;;;;;;;;;;;;;19.74;28.67;96232.28;4945689;28;20565;-68
2023/09/25 11:32:39;;;;;;;;;;;;;;;20.07;27.87;96228.47;4947640;28;19926;-68
2023/09/25 11:35:04;;;;;;;;;;;;;;;20.16;28.24;96225.47;4947346;28;20754;-75
2023/09/25 11:37:30;;;;;;;;;;;;;;;20.56;27.52;96227.69;4955012;28;20053;-76
2023/09/25 11:39:55;;;;;;;;;;;;;;;20.42;28.40;96226.19;4958580;28;20379;-75
2023/09/25 11:42:21;;;;;;;;;;;;;;;20.82;28.08;96224.88;4955932;28;19976;-63
2023/09/25 11:44:46;;;;;;;;;;;;;;;21.21;27.32;96219.94;4944483;28;19930;-64
2023/09/25 11:47:12;;;;;;;;;;;;;;;21.23;27.20;96217.84;4946841;28;21766;-64
2023/09/25 11:49:37;;;;;;;;;;;;;;;21.22;26.80;96210.78;4945326;28;20013;-64
2023/09/25 11:52:03;;;;;;;;;;;;;;;21.22;26.86;96208.06;4946006;28;20068;-63
2023/09/25 11:54:28;;;;;;;;;;;;;;;21.34;26.31;96208.09;4947431;28;20283;-63
2023/09/25 11:56:53;;;;;;;;;;;;;;;21.57;26.66;96211.06;4946445;28;19965;-64
2023/09/25 11:59:18;;;;;;;;;;;;;;;21.50;26.22;96198.47;4943217;28;19941;-65
2023/09/25 12:01:45;;;;;;;;;;;;;;;21.62;26.55;96201.19;4946839;28;19930;-64
2023/09/25 12:04:12;;;;;;;;;;;;;;;21.71;26.43;96204.38;4946694;28;20017;-64
2023/09/25 12:06:37;;;;;;;;;;;;;;;22.47;25.62;96204.63;4947171;28;19922;-64
2023/09/25 12:09:10;;;;;;;;;;;;;;;22.45;25.26;96201.31;4952815;28;19929;-64
2023/09/25 12:11:36;;;;;;;;;;;;;;;22.51;25.69;96194.94;4948025;28;20078;-76
2023/09/25 12:14:01;;;;;;;;;;;;;;;22.09;25.80;96194.09;4938542;28;19926;-76
2023/09/25 12:16:27;;;;;;;;;;;;;;;22.56;25.47;96186.94;4955699;28;19922;-77
2023/09/25 12:18:56;;;;;;;;;;;;;;;22.31;25.89;96196.19;4951344;28;19926;-76
2023/09/25 12:21:21;;;;;;;;;;;;;;;22.39;25.29;96203.09;4952427;28;19926;-76
2023/09/25 12:23:46;;;;;;;;;;;;;;;22.87;25.29;96211.09;4952281;28;20403;-76
2023/09/25 12:26:11;;;;;;;;;;;;;;;23.37;24.52;96206.84;4954749;28;19960;-77
2023/09/25 12:28:37;;;;;;;;;;;;;;;23.09;24.59;96205.81;4979818;28;20009;-76
2023/09/25 12:31:03;;;;;;;;;;;;;;;23.17;24.30;96218.16;4984300;28;19918;-76
2023/09/25 12:33:29;;;;;;;;;;;;;;;23.47;24.16;96199.91;4979853;28;19921;-76
2023/09/25 12:35:54;;;;;;;;;;;;;;;23.61;24.05;96212.09;4985066;28;19924;-77
2023/09/25 12:38:19;;;;;;;;;;;;;;;23.83;24.10;96208.66;4964546;28;19981;-76
2023/09/25 12:40:44;;;;;;;;;;;;;;;23.68;24.41;96212.75;4977553;28;19961;-76
2023/09/25 12:43:10;;;;;;;;;;;;;;;24.73;22.86;96211.41;4963274;28;19958;-76
2023/09/25 12:45:35;;;;;;;;;;;;;;;25.12;22.14;96205.03;4959331;28;20287;-75
2023/09/25 12:48:00;;;;;;;;;;;;;;;26.15;21.27;96210.44;4959524;28;20037;-76